createdAt,value
2018-11-26T00:00:21.765Z,22.40
2018-11-26T00:02:50.471Z,22.20
2018-11-26T00:05:18.717Z,23.77
2018-11-26T00:07:47.131Z,24.20
2018-11-26T00:10:32.686Z,23.70
2018-11-26T00:13:01.082Z,22.20
2018-11-26T00:15:29.328Z,23.50
2018-11-26T00:17:57.530Z,23.70
2018-11-26T00:20:25.679Z,23.87
2018-11-26T00:22:53.996Z,24.20
2018-11-26T00:25:22.216Z,23.93
2018-11-26T00:27:50.533Z,21.70
2018-11-26T00:30:18.700Z,24.13
2018-11-26T00:32:47.004Z,24.27
2018-11-26T00:35:15.250Z,23.27
2018-11-26T00:37:43.574Z,24.13
2018-11-26T00:40:11.977Z,23.33
2018-11-26T00:42:40.736Z,23.93
2018-11-26T00:45:11.273Z,22.80
2018-11-26T00:47:39.645Z,21.53
2018-11-26T00:50:09.458Z,24.43
2018-11-26T00:52:38.984Z,24.87
2018-11-26T00:55:09.253Z,23.70
2018-11-26T00:57:37.630Z,24.53
2018-11-26T01:00:10.529Z,24.73
2018-11-26T01:02:38.933Z,23.63
2018-11-26T01:05:07.591Z,25.50
2018-11-26T01:07:35.898Z,25.13
2018-11-26T01:10:04.153Z,23.87
2018-11-26T01:12:32.459Z,24.67
2018-11-26T01:15:00.804Z,24.57
2018-11-26T01:17:29.135Z,23.63
2018-11-26T01:19:57.306Z,24.43
2018-11-26T01:22:25.487Z,25.87
2018-11-26T01:24:53.803Z,23.77
2018-11-26T01:27:22.035Z,24.70
2018-11-26T01:29:50.359Z,25.90
2018-11-26T01:32:18.554Z,25.73
2018-11-26T01:34:46.940Z,25.60
2018-11-26T01:37:15.149Z,26.57
2018-11-26T01:39:44.362Z,24.83
2018-11-26T01:42:12.573Z,25.47
2018-11-26T01:44:40.917Z,24.97
2018-11-26T01:47:09.110Z,26.00
2018-11-26T01:49:37.254Z,24.30
2018-11-26T01:52:05.689Z,26.23
2018-11-26T01:54:33.867Z,25.50
2018-11-26T01:57:02.022Z,23.50
2018-11-26T01:59:30.209Z,24.10
2018-11-26T02:01:58.564Z,23.30
2018-11-26T02:04:27.256Z,23.90
2018-11-26T02:06:56.042Z,21.73
2018-11-26T02:09:24.461Z,22.73
2018-11-26T02:11:52.606Z,22.53
2018-11-26T02:14:20.953Z,23.33
2018-11-26T02:16:49.144Z,23.83
2018-11-26T02:19:18.086Z,24.40
2018-11-26T02:21:46.582Z,25.07
2018-11-26T02:24:14.776Z,25.27
2018-11-26T02:26:43.010Z,24.67
2018-11-26T02:29:11.342Z,26.27
2018-11-26T02:31:39.560Z,27.37
2018-11-26T02:34:07.800Z,24.93
2018-11-26T02:36:36.098Z,25.73
2018-11-26T02:39:06.058Z,28.63
2018-11-26T02:41:34.246Z,25.00
2018-11-26T02:44:02.422Z,27.13
2018-11-26T02:46:30.713Z,25.53
2018-11-26T02:48:58.892Z,27.73
2018-11-26T02:51:27.224Z,27.07
2018-11-26T02:53:55.442Z,28.00
2018-11-26T02:56:23.831Z,28.00
2018-11-26T02:58:52.057Z,27.20
2018-11-26T03:01:20.441Z,29.10
2018-11-26T03:03:48.594Z,27.70
2018-11-26T03:06:16.783Z,26.27
2018-11-26T03:08:44.919Z,26.40
2018-11-26T03:11:13.174Z,26.10
2018-11-26T03:13:41.329Z,28.67
2018-11-26T03:16:09.768Z,26.67
2018-11-26T03:18:37.986Z,26.53
2018-11-26T03:21:06.339Z,26.10
2018-11-26T03:23:35.196Z,26.03
2018-11-26T03:26:03.555Z,24.93
2018-11-26T03:28:31.765Z,23.43
2018-11-26T03:30:59.898Z,24.23
2018-11-26T03:33:28.099Z,25.40
2018-11-26T03:35:56.435Z,22.87
2018-11-26T03:38:57.414Z,23.57
2018-11-26T03:41:25.960Z,22.67
2018-11-26T03:43:54.131Z,22.87
2018-11-26T03:46:22.525Z,25.47
2018-11-26T03:48:50.715Z,25.43
2018-11-26T03:51:18.913Z,26.90
2018-11-26T03:53:47.069Z,24.57
2018-11-26T03:56:15.244Z,27.60
2018-11-26T03:58:43.616Z,27.90
2018-11-26T04:01:11.810Z,26.33
2018-11-26T04:03:39.985Z,25.47
2018-11-26T04:06:08.332Z,26.30
2018-11-26T04:08:36.467Z,24.50
2018-11-26T04:11:05.558Z,26.10
2018-11-26T04:13:33.729Z,26.53
2018-11-26T04:16:02.082Z,27.63
2018-11-26T04:18:30.238Z,25.20
2018-11-26T04:20:58.618Z,25.70
2018-11-26T04:23:26.763Z,26.43
2018-11-26T04:25:55.086Z,27.03
2018-11-26T04:28:23.238Z,27.33
2018-11-26T04:30:51.665Z,27.37
2018-11-26T04:33:20.652Z,28.00
2018-11-26T04:35:49.112Z,27.53
2018-11-26T04:38:17.419Z,28.40
2018-11-26T04:40:45.748Z,27.17
2018-11-26T04:43:13.875Z,26.30
2018-11-26T04:45:42.221Z,27.83
2018-11-26T04:48:10.380Z,26.93
2018-11-26T04:50:38.735Z,24.73
2018-11-26T04:53:07.071Z,25.97
2018-11-26T04:55:35.232Z,26.03
2018-11-26T04:58:03.459Z,26.53
2018-11-26T05:00:31.643Z,26.53
2018-11-26T05:03:01.047Z,26.60
2018-11-26T05:05:29.397Z,26.50
2018-11-26T05:07:57.591Z,28.00
2018-11-26T05:10:25.992Z,25.77
2018-11-26T05:12:54.343Z,25.40
2018-11-26T05:15:22.560Z,26.43
2018-11-26T05:17:50.734Z,27.37
2018-11-26T05:20:18.961Z,25.70
2018-11-26T05:22:47.127Z,26.63
2018-11-26T05:25:15.351Z,24.87
2018-11-26T05:27:44.302Z,28.43
2018-11-26T05:30:13.319Z,25.47
2018-11-26T05:32:41.728Z,27.50
2018-11-26T05:35:11.389Z,25.03
2018-11-26T05:37:39.589Z,25.87
2018-11-26T05:40:15.549Z,24.63
2018-11-26T05:42:44.059Z,25.23
2018-11-26T05:45:15.985Z,27.50
2018-11-26T05:47:44.141Z,26.23
2018-11-26T05:50:13.617Z,27.10
2018-11-26T05:52:41.747Z,26.47
2018-11-26T05:55:14.573Z,26.20
2018-11-26T05:57:43.259Z,25.07
2018-11-26T06:00:26.595Z,27.00
2018-11-26T06:02:55.909Z,27.57
2018-11-26T06:05:24.125Z,29.80
2018-11-26T06:07:52.283Z,25.63
2018-11-26T06:10:20.476Z,27.33
2018-11-26T06:12:48.656Z,27.67
2018-11-26T06:15:16.814Z,29.07
2018-11-26T06:17:45.147Z,28.67
2018-11-26T06:20:13.678Z,29.07
2018-11-26T06:22:43.803Z,30.63
2018-11-26T06:25:14.946Z,28.97
2018-11-26T06:27:43.728Z,26.37
2018-11-26T06:30:14.661Z,29.00
2018-11-26T06:32:43.362Z,26.97
2018-11-26T06:35:20.268Z,27.80
2018-11-26T06:37:48.834Z,27.73
2018-11-26T06:40:17.145Z,27.23
2018-11-26T06:42:46.006Z,28.87
2018-11-26T06:45:20.973Z,28.53
2018-11-26T06:47:49.408Z,29.67
2018-11-26T06:50:19.046Z,28.47
2018-11-26T06:52:47.330Z,28.80
2018-11-26T06:55:17.333Z,28.13
2018-11-26T06:57:45.511Z,28.90
2018-11-26T07:00:16.247Z,28.17
2018-11-26T07:02:44.582Z,30.03
2018-11-26T07:05:14.695Z,27.83
2018-11-26T07:07:42.977Z,27.60
2018-11-26T07:10:12.296Z,28.47
2018-11-26T07:12:40.610Z,26.43
2018-11-26T07:15:13.683Z,29.23
2018-11-26T07:17:42.047Z,26.93
2018-11-26T07:20:12.835Z,25.20
2018-11-26T07:22:41.324Z,27.00
2018-11-26T07:25:12.015Z,27.87
2018-11-26T07:27:41.101Z,26.83
2018-11-26T07:30:27.650Z,28.73
2018-11-26T07:32:55.871Z,27.73
2018-11-26T07:35:24.254Z,27.97
2018-11-26T07:37:52.471Z,28.37
2018-11-26T07:40:22.149Z,29.17
2018-11-26T07:43:03.781Z,26.57
2018-11-26T07:45:31.947Z,27.43
2018-11-26T07:48:00.309Z,30.00
2018-11-26T07:50:28.643Z,29.13
2018-11-26T07:52:57.009Z,26.33
2018-11-26T07:55:25.363Z,28.50
2018-11-26T07:57:53.549Z,27.23
2018-11-26T08:00:22.199Z,28.27
2018-11-26T08:02:50.721Z,29.13
2018-11-26T08:05:20.567Z,31.73
2018-11-26T08:07:48.767Z,30.83
2018-11-26T08:10:18.552Z,30.27
2018-11-26T08:12:48.107Z,31.10
2018-11-26T08:15:22.664Z,31.90
2018-11-26T08:17:50.823Z,30.47
2018-11-26T08:20:19.196Z,29.90
2018-11-26T08:22:47.403Z,28.90
2018-11-26T08:25:17.572Z,29.97
2018-11-26T08:27:46.826Z,29.47
2018-11-26T08:30:19.546Z,32.20
2018-11-26T08:32:50.364Z,30.57
2018-11-26T08:35:18.553Z,31.07
2018-11-26T08:37:52.460Z,29.70
2018-11-26T08:40:25.604Z,28.33
2018-11-26T08:43:58.545Z,29.10
2018-11-26T08:46:36.212Z,30.43
2018-11-26T08:49:11.258Z,25.97
2018-11-26T08:51:39.786Z,28.37
2018-11-26T08:54:08.024Z,29.67
2018-11-26T08:56:36.190Z,28.23
2018-11-26T08:59:04.636Z,29.20
2018-11-26T09:01:33.511Z,29.60
2018-11-26T09:04:08.678Z,27.70
2018-11-26T09:06:37.149Z,28.00
2018-11-26T09:09:09.228Z,25.27
2018-11-26T09:11:37.481Z,28.70
2018-11-26T09:14:06.429Z,27.20
2018-11-26T09:16:35.161Z,27.73
2018-11-26T09:19:03.367Z,26.97
2018-11-26T09:21:31.569Z,28.23
2018-11-26T09:23:59.756Z,28.40
2018-11-26T09:26:27.977Z,25.63
2018-11-26T09:28:56.195Z,26.17
2018-11-26T09:31:24.323Z,27.00
2018-11-26T09:33:52.451Z,27.27
2018-11-26T09:36:20.661Z,26.33
2018-11-26T09:38:48.939Z,23.77
2018-11-26T09:41:17.202Z,25.87
2018-11-26T09:43:45.369Z,24.13
2018-11-26T09:46:13.553Z,26.17
2018-11-26T09:48:41.697Z,26.93
2018-11-26T09:51:14.096Z,25.27
2018-11-26T09:53:38.097Z,24.43
2018-11-26T09:56:06.342Z,23.13
2018-11-26T09:58:34.529Z,24.17
2018-11-26T10:01:02.759Z,24.83
2018-11-26T10:03:30.974Z,23.57
2018-11-26T10:05:59.201Z,24.27
2018-11-26T10:08:27.331Z,22.37
2018-11-26T10:10:55.531Z,22.23
2018-11-26T10:13:23.774Z,23.33
2018-11-26T10:15:51.955Z,23.33
2018-11-26T10:18:20.111Z,22.80
2018-11-26T10:20:48.291Z,22.40
2018-11-26T10:23:16.483Z,22.67
2018-11-26T10:25:44.676Z,22.43
2018-11-26T10:28:12.861Z,21.63
2018-11-26T10:30:41.023Z,20.87
2018-11-26T10:33:14.691Z,21.30
2018-11-26T10:35:37.428Z,19.53
2018-11-26T10:38:06.888Z,19.80
2018-11-26T10:40:35.044Z,21.27
2018-11-26T10:43:03.310Z,20.50
2018-11-26T10:45:31.462Z,20.60
2018-11-26T10:47:59.660Z,20.53
2018-11-26T10:50:27.809Z,31.13
2018-11-26T10:52:58.368Z,20.00
2018-11-26T10:55:33.083Z,20.47
2018-11-26T10:58:01.465Z,19.87
2018-11-26T11:00:35.647Z,19.80
2018-11-26T11:03:04.043Z,21.63
2018-11-26T11:05:32.341Z,21.43
2018-11-26T11:08:07.152Z,20.57
2018-11-26T11:10:35.324Z,18.87
2018-11-26T11:13:03.820Z,20.47
2018-11-26T11:15:32.033Z,20.97
2018-11-26T11:18:00.288Z,21.00
2018-11-26T11:20:29.081Z,20.73
2018-11-26T11:22:57.282Z,18.47
2018-11-26T11:25:25.559Z,18.10
2018-11-26T11:27:53.750Z,17.87
2018-11-26T11:30:23.962Z,19.10
2018-11-26T11:32:53.206Z,19.60
2018-11-26T11:35:21.443Z,17.97
2018-11-26T11:37:50.525Z,19.80
2018-11-26T11:40:21.196Z,21.73
2018-11-26T11:42:49.908Z,21.40
2018-11-26T11:45:18.428Z,20.50
2018-11-26T11:47:46.653Z,19.83
2018-11-26T11:50:16.698Z,22.40
2018-11-26T11:52:45.140Z,21.90
2018-11-26T11:55:15.714Z,21.13
2018-11-26T11:57:44.062Z,23.07
2018-11-26T12:00:20.769Z,23.87
2018-11-26T12:02:48.940Z,33.43
2018-11-26T12:05:17.200Z,23.27
2018-11-26T12:07:45.394Z,23.37
2018-11-26T12:10:13.638Z,25.80
2018-11-26T12:12:41.839Z,20.73
2018-11-26T12:15:12.036Z,24.23
2018-11-26T12:17:40.816Z,20.53
2018-11-26T12:20:10.912Z,19.83
2018-11-26T12:22:40.196Z,25.37
2018-11-26T12:25:11.293Z,26.70
2018-11-26T12:27:39.513Z,19.53
2018-11-26T12:30:16.012Z,19.50
2018-11-26T12:32:44.150Z,25.50
2018-11-26T12:35:12.332Z,23.50
2018-11-26T12:37:40.536Z,24.53
2018-11-26T12:40:13.623Z,40.97
2018-11-26T12:42:41.832Z,19.93
2018-11-26T12:45:33.801Z,21.93
2018-11-26T12:48:02.174Z,21.40
2018-11-26T12:50:30.463Z,22.73
2018-11-26T12:52:58.617Z,21.40
2018-11-26T12:55:26.801Z,21.70
2018-11-26T12:57:55.920Z,20.60
2018-11-26T13:00:26.670Z,21.83
2018-11-26T13:03:02.111Z,21.97
2018-11-26T13:05:30.322Z,22.73
2018-11-26T13:07:58.490Z,21.17
2018-11-26T13:10:26.671Z,22.87
2018-11-26T13:12:54.955Z,21.90
2018-11-26T13:15:25.081Z,23.23
2018-11-26T13:17:53.277Z,22.40
2018-11-26T13:20:25.671Z,21.47
2018-11-26T13:22:54.370Z,23.73
2018-11-26T13:25:25.373Z,21.97
2018-11-26T13:27:55.225Z,20.70
2018-11-26T13:30:27.209Z,20.93
2018-11-26T13:32:59.982Z,21.83
2018-11-26T13:35:28.220Z,22.43
2018-11-26T13:37:56.465Z,21.13
2018-11-26T13:40:24.666Z,21.40
2018-11-26T13:42:52.882Z,21.10
2018-11-26T13:45:29.592Z,20.77
2018-11-26T13:47:57.841Z,19.17
2018-11-26T13:50:29.896Z,21.13
2018-11-26T13:52:58.203Z,21.13
2018-11-26T13:55:26.438Z,21.87
2018-11-26T13:57:54.613Z,19.37
2018-11-26T14:00:22.800Z,21.30
2018-11-26T14:02:51.007Z,19.73
2018-11-26T14:05:19.551Z,19.13
2018-11-26T14:07:48.043Z,22.53
2018-11-26T14:10:21.526Z,21.97
2018-11-26T14:13:23.272Z,20.07
2018-11-26T14:15:51.611Z,22.17
2018-11-26T14:18:19.800Z,23.23
2018-11-26T14:20:48.023Z,22.07
2018-11-26T14:23:16.197Z,20.97
2018-11-26T14:25:44.441Z,21.50
2018-11-26T14:28:12.672Z,20.23
2018-11-26T14:30:40.950Z,21.07
2018-11-26T14:33:09.462Z,20.27
2018-11-26T14:35:37.621Z,21.17
2018-11-26T14:38:08.495Z,20.13
2018-11-26T14:40:42.962Z,22.07
2018-11-26T14:43:11.181Z,21.20
2018-11-26T14:45:39.442Z,20.77
2018-11-26T14:48:07.653Z,19.63
2018-11-26T14:50:35.880Z,19.50
2018-11-26T14:53:05.148Z,20.30
2018-11-26T14:55:35.729Z,21.40
2018-11-26T14:58:04.077Z,20.13
2018-11-26T15:00:32.314Z,22.10
2018-11-26T15:03:00.524Z,20.40
2018-11-26T15:05:28.716Z,20.57
2018-11-26T15:07:56.887Z,20.37
2018-11-26T15:10:25.551Z,21.60
2018-11-26T15:12:53.772Z,19.77
2018-11-26T15:15:25.003Z,21.53
2018-11-26T15:17:53.200Z,21.33
2018-11-26T15:20:25.458Z,21.13
2018-11-26T15:22:55.935Z,21.27
2018-11-26T15:25:26.731Z,20.10
2018-11-26T15:27:57.965Z,21.60
2018-11-26T15:30:26.213Z,22.57
2018-11-26T15:32:56.084Z,21.10
2018-11-26T15:35:24.509Z,20.63
2018-11-26T15:37:52.814Z,20.30
2018-11-26T15:40:21.744Z,19.33
2018-11-26T15:42:49.982Z,20.30
2018-11-26T15:45:22.873Z,20.57
2018-11-26T15:47:52.262Z,20.60
2018-11-26T15:50:20.865Z,20.33
2018-11-26T15:52:48.759Z,21.47
2018-11-26T15:55:18.501Z,22.27
2018-11-26T15:57:46.839Z,21.13
2018-11-26T16:00:16.561Z,20.40
2018-11-26T16:02:44.962Z,20.40
2018-11-26T16:05:19.024Z,20.63
2018-11-26T16:07:48.117Z,21.23
2018-11-26T16:10:16.355Z,20.70
2018-11-26T16:12:46.345Z,20.83
2018-11-26T16:15:18.456Z,21.10
2018-11-26T16:17:46.705Z,20.10
2018-11-26T16:20:17.947Z,19.20
2018-11-26T16:22:46.186Z,20.03
2018-11-26T16:25:16.468Z,18.93
2018-11-26T16:27:44.857Z,20.13
2018-11-26T16:30:14.698Z,20.00
2018-11-26T16:32:44.933Z,18.97
2018-11-26T16:35:18.914Z,19.13
2018-11-26T16:37:47.198Z,20.77
2018-11-26T16:40:16.537Z,19.43
2018-11-26T16:42:44.808Z,19.07
2018-11-26T16:45:17.508Z,20.80
2018-11-26T16:47:48.367Z,19.53
2018-11-26T16:50:17.967Z,20.10
2018-11-26T16:52:46.218Z,19.97
2018-11-26T16:55:15.587Z,20.73
2018-11-26T16:57:43.856Z,18.57
2018-11-26T17:00:19.658Z,18.17
2018-11-26T17:02:49.500Z,20.07
2018-11-26T17:05:26.851Z,19.00
2018-11-26T17:07:55.062Z,19.37
2018-11-26T17:10:23.240Z,20.50
2018-11-26T17:12:51.700Z,18.33
2018-11-26T17:15:19.880Z,18.97
2018-11-26T17:17:48.074Z,19.33
2018-11-26T17:20:17.024Z,19.43
2018-11-26T17:22:45.284Z,18.33
2018-11-26T17:25:14.922Z,19.33
2018-11-26T17:27:43.884Z,18.63
2018-11-26T17:30:18.724Z,18.93
2018-11-26T17:32:49.720Z,18.43
2018-11-26T17:35:18.038Z,17.77
2018-11-26T17:37:46.250Z,18.27
2018-11-26T17:40:23.793Z,18.30
2018-11-26T17:42:52.597Z,18.43
2018-11-26T17:45:21.605Z,17.57
2018-11-26T17:47:51.593Z,18.53
2018-11-26T17:50:28.919Z,18.23
2018-11-26T17:52:57.277Z,18.00
2018-11-26T17:55:25.561Z,18.60
2018-11-26T17:57:53.999Z,18.10
2018-11-26T18:00:34.242Z,17.37
2018-11-26T18:03:02.475Z,17.97
2018-11-26T18:05:31.344Z,18.73
2018-11-26T18:08:08.867Z,17.47
2018-11-26T18:10:37.229Z,17.77
2018-11-26T18:13:05.923Z,17.23
2018-11-26T18:15:34.222Z,17.57
2018-11-26T18:18:02.419Z,17.47
2018-11-26T18:20:30.780Z,17.60
2018-11-26T18:22:58.977Z,17.67
2018-11-26T18:25:27.187Z,17.20
2018-11-26T18:28:02.197Z,17.77
2018-11-26T18:30:35.496Z,18.73
2018-11-26T18:33:04.063Z,16.63
2018-11-26T18:35:32.327Z,16.83
2018-11-26T18:38:00.600Z,18.27
2018-11-26T18:40:29.458Z,17.53
2018-11-26T18:42:57.838Z,18.73
2018-11-26T18:45:26.043Z,17.97
2018-11-26T18:47:54.300Z,18.03
2018-11-26T18:50:22.543Z,17.23
2018-11-26T18:52:51.292Z,16.70
2018-11-26T18:55:19.997Z,18.53
2018-11-26T18:57:48.218Z,18.47
2018-11-26T19:00:24.495Z,18.33
2018-11-26T19:02:53.686Z,18.57
2018-11-26T19:05:21.994Z,19.13
2018-11-26T19:07:51.165Z,17.87
2018-11-26T19:10:22.004Z,18.73
2018-11-26T19:13:25.980Z,19.27
2018-11-26T19:16:05.861Z,17.80
2018-11-26T19:18:34.106Z,19.53
2018-11-26T19:21:02.379Z,17.97
2018-11-26T19:23:30.631Z,19.00
2018-11-26T19:25:58.840Z,17.60
2018-11-26T19:28:27.072Z,17.43
2018-11-26T19:30:55.352Z,17.30
2018-11-26T19:33:23.562Z,17.67
2018-11-26T19:35:51.802Z,17.83
2018-11-26T19:38:20.046Z,17.43
2018-11-26T19:40:48.267Z,18.07
2018-11-26T19:43:16.529Z,17.97
2018-11-26T19:45:44.816Z,18.53
2018-11-26T19:48:13.019Z,17.73
2018-11-26T19:50:41.217Z,18.83
2018-11-26T19:53:11.234Z,17.60
2018-11-26T19:55:41.187Z,19.53
2018-11-26T19:58:09.988Z,18.50
2018-11-26T20:00:38.939Z,18.43
2018-11-26T20:03:22.411Z,18.80
2018-11-26T20:06:05.190Z,18.00
2018-11-26T20:08:33.456Z,18.80
2018-11-26T20:11:01.708Z,17.90
2018-11-26T20:13:30.012Z,20.23
2018-11-26T20:15:58.496Z,19.63
2018-11-26T20:18:28.587Z,18.60
2018-11-26T20:20:55.024Z,18.30
2018-11-26T20:23:23.288Z,18.70
2018-11-26T20:25:52.242Z,18.60
2018-11-26T20:28:19.852Z,19.10
2018-11-26T20:30:48.708Z,18.30
2018-11-26T20:33:17.157Z,18.23
2018-11-26T20:35:46.571Z,19.00
2018-11-26T20:38:15.850Z,19.40
2018-11-26T20:40:44.101Z,19.17
2018-11-26T20:43:13.619Z,17.53
2018-11-26T20:45:44.203Z,19.57
2018-11-26T20:48:12.471Z,18.83
2018-11-26T20:50:45.531Z,19.00
2018-11-26T20:53:13.771Z,17.37
2018-11-26T20:55:42.615Z,18.90
2018-11-26T20:58:10.839Z,18.20
2018-11-26T21:00:40.177Z,18.03
2018-11-26T21:03:09.715Z,18.13
2018-11-26T21:05:38.771Z,18.07
2018-11-26T21:08:07.154Z,17.67
2018-11-26T21:10:35.889Z,19.80
2018-11-26T21:13:04.272Z,18.33
2018-11-26T21:15:32.556Z,18.53
2018-11-26T21:18:04.641Z,17.80
2018-11-26T21:20:38.446Z,18.00
2018-11-26T21:23:12.152Z,18.27
2018-11-26T21:25:40.562Z,18.50
2018-11-26T21:28:09.317Z,18.73
2018-11-26T21:30:37.548Z,17.33
2018-11-26T21:33:06.177Z,18.67
2018-11-26T21:35:34.473Z,18.67
2018-11-26T21:38:02.806Z,16.60
2018-11-26T21:40:31.080Z,17.50
2018-11-26T21:43:00.385Z,18.10
2018-11-26T21:45:32.448Z,18.67
2018-11-26T21:48:00.674Z,17.57
2018-11-26T21:50:28.904Z,17.60
2018-11-26T21:52:57.205Z,17.80
2018-11-26T21:55:25.435Z,17.80
2018-11-26T21:57:53.666Z,18.03
2018-11-26T22:00:28.849Z,17.67
2018-11-26T22:02:57.572Z,18.83
2018-11-26T22:05:26.882Z,18.63
2018-11-26T22:07:55.061Z,18.70
2018-11-26T22:10:24.200Z,18.00
2018-11-26T22:12:54.606Z,17.40
2018-11-26T22:15:23.086Z,18.70
2018-11-26T22:17:51.377Z,18.00
2018-11-26T22:20:22.691Z,17.73
2018-11-26T22:22:50.966Z,19.60
2018-11-26T22:25:19.339Z,17.17
2018-11-26T22:27:47.687Z,18.87
2018-11-26T22:30:21.560Z,17.17
2018-11-26T22:32:49.862Z,17.87
2018-11-26T22:35:18.174Z,16.97
2018-11-26T22:37:46.451Z,16.57
2018-11-26T22:40:21.608Z,17.77
2018-11-26T22:42:50.214Z,16.20
2018-11-26T22:45:23.219Z,18.00
2018-11-26T22:47:58.441Z,17.90
2018-11-26T22:50:26.668Z,16.70
2018-11-26T22:52:54.899Z,16.97
2018-11-26T22:55:23.164Z,17.33
2018-11-26T22:57:51.518Z,17.33
2018-11-26T23:00:34.746Z,17.57
2018-11-26T23:03:03.120Z,16.57
2018-11-26T23:05:31.371Z,17.50
2018-11-26T23:07:59.765Z,16.97
2018-11-26T23:10:27.979Z,17.50
2018-11-26T23:12:56.399Z,16.67
2018-11-26T23:15:24.618Z,16.60
2018-11-26T23:17:52.857Z,16.73
2018-11-26T23:20:21.103Z,16.73
2018-11-26T23:22:49.510Z,16.60
2018-11-26T23:25:19.129Z,16.33
2018-11-26T23:27:47.376Z,17.20
2018-11-26T23:30:22.575Z,18.13
2018-11-26T23:32:55.039Z,16.60
2018-11-26T23:35:23.420Z,16.83
2018-11-26T23:37:51.873Z,15.63
2018-11-26T23:40:20.075Z,18.07
2018-11-26T23:42:48.569Z,16.50
2018-11-26T23:45:26.354Z,16.60
2018-11-26T23:47:54.913Z,15.20
2018-11-26T23:50:23.177Z,15.57
2018-11-26T23:52:51.489Z,15.57
2018-11-26T23:55:23.266Z,16.93
2018-11-26T23:57:51.661Z,16.13
